createdAt,value
2023-04-25T00:01:53.718Z,17.80
2023-04-25T00:04:23.593Z,17.40
2023-04-25T00:06:56.924Z,14.57
2023-04-25T00:09:26.926Z,20.27
2023-04-25T00:11:56.672Z,18.17
2023-04-25T00:14:26.421Z,17.27
2023-04-25T00:16:56.392Z,18.20
2023-04-25T00:19:27.976Z,12.93
2023-04-25T00:22:00.410Z,19.47
2023-04-25T00:24:30.127Z,24.60
2023-04-25T00:26:59.963Z,23.70
2023-04-25T00:29:29.717Z,18.33
2023-04-25T00:31:59.601Z,17.30
2023-04-25T00:34:29.421Z,24.80
2023-04-25T00:37:02.978Z,28.00
2023-04-25T00:39:32.729Z,19.13
2023-04-25T00:42:03.148Z,19.20
2023-04-25T00:44:34.466Z,29.50
2023-04-25T00:47:06.124Z,18.83
2023-04-25T00:49:36.130Z,17.73
2023-04-25T00:52:08.836Z,15.17
2023-04-25T00:54:38.651Z,21.80
2023-04-25T00:57:08.441Z,14.53
2023-04-25T00:59:40.073Z,24.20
2023-04-25T01:02:10.414Z,23.17
2023-04-25T01:04:40.529Z,26.63
2023-04-25T01:07:13.739Z,30.43
2023-04-25T01:09:43.527Z,17.27
2023-04-25T01:12:13.452Z,19.70
2023-04-25T01:14:43.880Z,26.03
2023-04-25T01:17:13.893Z,24.83
2023-04-25T01:19:43.636Z,23.80
2023-04-25T01:22:16.107Z,20.60
2023-04-25T01:24:46.194Z,23.63
2023-04-25T01:27:16.400Z,24.27
2023-04-25T01:29:46.683Z,27.27
2023-04-25T01:32:17.874Z,24.77
2023-04-25T01:34:47.692Z,30.27
2023-04-25T01:37:21.230Z,24.70
2023-04-25T01:39:51.350Z,27.40
2023-04-25T01:42:22.531Z,19.60
2023-04-25T01:44:52.370Z,22.90
2023-04-25T01:47:22.131Z,21.57
2023-04-25T01:49:52.059Z,18.33
2023-04-25T01:52:24.475Z,25.03
2023-04-25T01:54:56.762Z,18.10
2023-04-25T01:57:26.812Z,26.40
2023-04-25T02:00:02.250Z,26.63
2023-04-25T02:02:44.079Z,27.87
2023-04-25T02:05:26.449Z,21.30
2023-04-25T02:07:59.320Z,16.10
2023-04-25T02:10:30.402Z,21.63
2023-04-25T02:13:16.944Z,23.53
2023-04-25T02:16:14.333Z,26.17
2023-04-25T02:18:44.141Z,21.37
2023-04-25T02:21:13.856Z,25.77
2023-04-25T02:23:50.121Z,27.07
2023-04-25T02:26:20.070Z,29.10
2023-04-25T02:28:49.786Z,26.40
2023-04-25T02:31:19.601Z,36.60
2023-04-25T02:33:49.639Z,22.07
2023-04-25T02:36:19.661Z,22.33
2023-04-25T02:38:51.973Z,28.67
2023-04-25T02:41:24.409Z,38.37
2023-04-25T02:43:54.141Z,38.20
2023-04-25T02:46:37.876Z,28.60
2023-04-25T02:49:09.552Z,37.00
2023-04-25T02:51:39.458Z,26.30
2023-04-25T02:54:11.885Z,28.93
2023-04-25T02:56:45.730Z,29.83
2023-04-25T02:59:21.010Z,39.03
2023-04-25T03:01:50.944Z,37.10
2023-04-25T03:04:20.783Z,22.80
2023-04-25T03:06:51.181Z,30.87
2023-04-25T03:09:26.483Z,32.27
2023-04-25T03:11:56.322Z,33.50
2023-04-25T03:14:26.747Z,33.67
2023-04-25T03:16:56.732Z,39.93
2023-04-25T03:19:26.936Z,29.53
2023-04-25T03:21:56.693Z,27.87
2023-04-25T03:24:29.373Z,28.00
2023-04-25T03:26:59.124Z,30.00
2023-04-25T03:29:29.908Z,34.30
2023-04-25T03:32:00.397Z,28.87
2023-04-25T03:34:30.239Z,33.37
2023-04-25T03:37:01.140Z,27.33
2023-04-25T03:39:34.134Z,35.37
2023-04-25T03:42:04.079Z,28.77
2023-04-25T03:44:37.193Z,25.50
2023-04-25T03:47:07.366Z,27.17
2023-04-25T03:49:38.696Z,30.17
2023-04-25T03:52:09.814Z,31.90
2023-04-25T03:54:45.108Z,36.50
2023-04-25T03:57:18.651Z,36.87
2023-04-25T03:59:48.387Z,32.03
2023-04-25T04:02:19.357Z,37.00
2023-04-25T04:04:49.733Z,43.00
2023-04-25T04:07:20.106Z,25.37
2023-04-25T04:09:55.927Z,30.60
2023-04-25T04:12:34.114Z,30.63
2023-04-25T04:15:06.885Z,34.73
2023-04-25T04:17:37.238Z,31.00
2023-04-25T04:20:09.443Z,34.17
2023-04-25T04:22:39.440Z,34.20
2023-04-25T04:25:15.730Z,35.43
2023-04-25T04:28:08.319Z,30.73
2023-04-25T04:30:48.157Z,34.83
2023-04-25T04:33:20.081Z,43.83
2023-04-25T04:35:54.643Z,28.57
2023-04-25T04:38:25.119Z,24.70
2023-04-25T04:40:59.080Z,30.17
2023-04-25T04:43:36.717Z,40.93
2023-04-25T04:46:25.812Z,37.50
2023-04-25T04:49:21.810Z,32.13
2023-04-25T04:52:14.188Z,38.73
2023-04-25T04:55:06.597Z,39.73
2023-04-25T04:57:55.034Z,16.40
2023-04-25T05:00:36.853Z,29.70
2023-04-25T05:03:25.416Z,29.17
2023-04-25T05:06:09.958Z,26.53
2023-04-25T05:08:56.571Z,20.33
2023-04-25T05:11:34.950Z,32.63
2023-04-25T05:14:19.407Z,30.37
2023-04-25T05:17:19.628Z,21.33
2023-04-25T05:20:10.393Z,24.27
2023-04-25T05:23:05.227Z,28.00
2023-04-25T05:25:44.883Z,23.80
2023-04-25T05:28:33.013Z,24.50
2023-04-25T05:31:34.545Z,34.07
2023-04-25T05:34:08.780Z,25.10
2023-04-25T05:36:54.382Z,30.60
2023-04-25T05:39:24.172Z,24.30
2023-04-25T05:42:18.356Z,24.23
2023-04-25T05:45:12.157Z,22.27
2023-04-25T05:48:14.474Z,34.60
2023-04-25T05:51:00.207Z,33.10
2023-04-25T05:53:46.969Z,28.33
2023-04-25T05:56:18.185Z,27.27
2023-04-25T05:58:49.803Z,29.43
2023-04-25T06:01:19.761Z,29.23
2023-04-25T06:03:53.129Z,31.07
2023-04-25T06:06:23.302Z,31.37
2023-04-25T06:08:53.099Z,24.80
2023-04-25T06:11:22.991Z,27.30
2023-04-25T06:13:53.104Z,26.33
2023-04-25T06:16:23.129Z,30.50
2023-04-25T06:18:55.607Z,27.87
2023-04-25T06:21:25.345Z,27.67
2023-04-25T06:23:55.148Z,37.43
2023-04-25T06:26:26.944Z,27.63
2023-04-25T06:28:56.790Z,23.40
2023-04-25T06:31:26.595Z,23.20
2023-04-25T06:34:01.138Z,19.83
2023-04-25T06:36:32.816Z,17.77
2023-04-25T06:39:10.213Z,22.73
2023-04-25T06:41:40.111Z,16.33
2023-04-25T06:44:13.607Z,32.30
2023-04-25T06:46:52.505Z,21.67
2023-04-25T06:49:25.537Z,22.40
2023-04-25T06:51:55.360Z,23.67
2023-04-25T06:54:26.044Z,30.33
2023-04-25T06:57:04.202Z,24.20
2023-04-25T06:59:36.479Z,25.33
2023-04-25T07:02:07.429Z,23.63
2023-04-25T07:04:40.189Z,19.53
2023-04-25T07:07:10.290Z,15.37
2023-04-25T07:09:49.341Z,24.20
2023-04-25T07:12:19.149Z,25.10
2023-04-25T07:14:48.963Z,21.93
2023-04-25T07:17:19.223Z,17.93
2023-04-25T07:19:52.606Z,16.23
2023-04-25T07:22:22.415Z,16.50
2023-04-25T07:24:54.342Z,25.50
2023-04-25T07:27:25.773Z,24.73
2023-04-25T07:30:00.391Z,14.20
2023-04-25T07:32:31.003Z,18.10
2023-04-25T07:35:04.497Z,15.20
2023-04-25T07:37:34.307Z,18.30
2023-04-25T07:40:14.090Z,23.60
2023-04-25T07:42:49.494Z,18.07
2023-04-25T07:45:25.563Z,16.00
2023-04-25T07:47:56.065Z,19.50
2023-04-25T07:50:28.835Z,17.07
2023-04-25T07:52:58.889Z,19.40
2023-04-25T07:55:37.630Z,19.30
2023-04-25T07:58:16.668Z,20.30
2023-04-25T08:00:49.426Z,15.17
2023-04-25T08:03:33.383Z,21.97
2023-04-25T08:06:08.332Z,16.60
2023-04-25T08:08:45.804Z,21.33
2023-04-25T08:11:20.095Z,27.57
2023-04-25T08:13:49.809Z,18.53
2023-04-25T08:16:19.816Z,15.37
2023-04-25T08:18:50.470Z,15.27
2023-04-25T08:21:23.321Z,20.03
2023-04-25T08:23:53.310Z,19.83
2023-04-25T08:26:28.328Z,8.37
2023-04-25T08:28:58.361Z,14.33
2023-04-25T08:31:28.241Z,21.97
2023-04-25T08:34:01.862Z,22.63
2023-04-25T08:37:00.355Z,17.20
2023-04-25T08:39:43.338Z,17.67
2023-04-25T08:42:28.157Z,23.97
2023-04-25T08:44:58.277Z,10.40
2023-04-25T08:47:34.216Z,16.90
2023-04-25T08:50:06.593Z,12.93
2023-04-25T08:52:41.461Z,19.50
2023-04-25T08:55:13.443Z,16.23
2023-04-25T08:57:44.393Z,12.20
2023-04-25T09:00:15.887Z,18.10
2023-04-25T09:02:47.742Z,14.30
2023-04-25T09:05:20.218Z,21.70
2023-04-25T09:07:54.128Z,15.07
2023-04-25T09:10:24.011Z,14.80
2023-04-25T09:13:07.464Z,12.57
2023-04-25T09:15:54.762Z,11.73
2023-04-25T09:18:38.838Z,13.97
2023-04-25T09:21:14.138Z,13.70
2023-04-25T09:23:50.942Z,14.90
2023-04-25T09:26:22.563Z,15.37
2023-04-25T09:29:08.305Z,15.23
2023-04-25T09:31:40.919Z,13.13
2023-04-25T09:34:16.832Z,11.23
2023-04-25T09:36:51.826Z,11.63
2023-04-25T09:40:04.112Z,7.93
2023-04-25T09:42:36.609Z,11.67
2023-04-25T09:45:07.730Z,33.73
2023-04-25T09:47:45.131Z,6.30
2023-04-25T09:50:20.778Z,19.03
2023-04-25T09:53:08.172Z,62.60
2023-04-25T09:56:10.225Z,11.80
2023-04-25T09:58:41.357Z,13.17
2023-04-25T10:01:13.976Z,11.63
2023-04-25T10:04:01.770Z,9.23
2023-04-25T10:06:46.534Z,14.13
2023-04-25T10:09:19.726Z,6.17
2023-04-25T10:11:52.541Z,15.13
2023-04-25T10:14:23.448Z,6.90
2023-04-25T10:16:54.845Z,8.97
2023-04-25T10:19:25.603Z,13.80
2023-04-25T10:21:59.715Z,6.10
2023-04-25T10:24:30.817Z,10.30
2023-04-25T10:27:03.896Z,10.00
2023-04-25T10:29:33.784Z,11.93
2023-04-25T10:32:03.661Z,13.73
2023-04-25T10:34:44.022Z,13.30
2023-04-25T10:37:14.481Z,12.10
2023-04-25T10:39:46.014Z,9.43
2023-04-25T10:42:18.714Z,24.27
2023-04-25T10:45:05.549Z,7.50
2023-04-25T10:47:39.617Z,8.20
2023-04-25T10:50:11.828Z,11.03
2023-04-25T10:52:42.995Z,17.97
2023-04-25T10:55:13.177Z,12.93
2023-04-25T10:57:48.589Z,7.80
2023-04-25T11:00:20.785Z,11.77
2023-04-25T11:02:52.325Z,8.30
2023-04-25T11:05:30.872Z,14.20
2023-04-25T11:08:07.554Z,6.70
2023-04-25T11:10:39.091Z,4.50
2023-04-25T11:13:11.426Z,5.77
2023-04-25T11:15:41.269Z,10.53
2023-04-25T11:18:11.208Z,8.77
2023-04-25T11:20:41.376Z,10.27
2023-04-25T11:23:11.733Z,10.80
2023-04-25T11:25:42.340Z,4.80
2023-04-25T11:28:14.725Z,6.57
2023-04-25T11:30:52.230Z,4.43
2023-04-25T11:33:26.643Z,3.10
2023-04-25T11:35:58.169Z,7.13
2023-04-25T11:38:29.612Z,5.90
2023-04-25T11:40:59.644Z,5.53
2023-04-25T11:43:32.515Z,9.40
2023-04-25T11:46:02.423Z,6.70
2023-04-25T11:48:41.175Z,5.73
2023-04-25T11:51:11.552Z,15.10
2023-04-25T11:53:45.249Z,8.43
2023-04-25T11:56:15.257Z,7.10
2023-04-25T11:59:04.641Z,6.60
2023-04-25T12:01:36.459Z,5.87
2023-04-25T12:04:17.088Z,10.47
2023-04-25T12:06:50.325Z,7.80
2023-04-25T12:09:22.735Z,7.47
2023-04-25T12:11:57.122Z,11.93
2023-04-25T12:14:31.090Z,7.60
2023-04-25T12:17:02.251Z,8.47
2023-04-25T12:19:37.257Z,7.87
2023-04-25T12:22:22.282Z,4.83
2023-04-25T12:24:54.323Z,2.60
2023-04-25T12:27:24.099Z,7.30
2023-04-25T12:29:58.390Z,9.27
2023-04-25T12:32:28.415Z,4.83
2023-04-25T12:34:58.209Z,7.50
2023-04-25T12:37:28.096Z,7.07
2023-04-25T12:39:57.805Z,8.33
2023-04-25T12:42:27.557Z,6.50
2023-04-25T12:44:59.866Z,5.57
2023-04-25T12:47:29.702Z,6.13
2023-04-25T12:49:59.511Z,5.23
2023-04-25T12:52:29.228Z,3.90
2023-04-25T12:54:58.951Z,6.20
2023-04-25T12:57:28.702Z,4.90
2023-04-25T13:00:01.692Z,5.13
2023-04-25T13:02:31.573Z,6.93
2023-04-25T13:05:01.448Z,4.90
2023-04-25T13:07:31.962Z,6.10
2023-04-25T13:10:04.013Z,7.47
2023-04-25T13:12:33.766Z,10.87
2023-04-25T13:15:06.430Z,6.03
2023-04-25T13:17:36.248Z,4.03
2023-04-25T13:20:09.768Z,6.00
2023-04-25T13:22:40.482Z,6.07
2023-04-25T13:25:11.832Z,12.13
2023-04-25T13:27:41.821Z,6.60
2023-04-25T13:30:15.138Z,6.87
2023-04-25T13:32:45.073Z,10.23
2023-04-25T13:35:16.451Z,10.73
2023-04-25T13:37:46.475Z,7.07
2023-04-25T13:40:16.785Z,9.43
2023-04-25T13:42:46.999Z,5.50
2023-04-25T13:45:19.422Z,8.43
2023-04-25T13:47:49.299Z,4.57
2023-04-25T13:50:19.462Z,8.60
2023-04-25T13:52:49.330Z,5.33
2023-04-25T13:55:19.450Z,5.17
2023-04-25T13:57:49.512Z,8.40
2023-04-25T14:00:22.593Z,8.20
2023-04-25T14:02:52.438Z,6.07
2023-04-25T14:05:22.320Z,15.63
2023-04-25T14:07:52.224Z,6.23
2023-04-25T14:10:21.924Z,4.17
2023-04-25T14:12:51.870Z,7.97
2023-04-25T14:15:24.271Z,11.80
2023-04-25T14:17:54.128Z,5.27
2023-04-25T14:20:25.069Z,4.80
2023-04-25T14:22:55.666Z,4.00
2023-04-25T14:25:25.590Z,5.20
2023-04-25T14:27:55.454Z,7.00
2023-04-25T14:30:27.833Z,8.43
2023-04-25T14:32:58.157Z,5.13
2023-04-25T14:35:27.939Z,4.97
2023-04-25T14:37:57.979Z,7.83
2023-04-25T14:40:27.971Z,6.33
2023-04-25T14:42:58.196Z,2.90
2023-04-25T14:45:30.705Z,10.23
2023-04-25T14:48:00.823Z,7.40
2023-04-25T14:50:30.651Z,4.30
2023-04-25T14:53:01.797Z,4.03
2023-04-25T14:55:31.871Z,4.90
2023-04-25T14:58:02.230Z,7.57
2023-04-25T15:00:34.704Z,9.40
2023-04-25T15:03:04.810Z,4.53
2023-04-25T15:05:34.741Z,6.97
2023-04-25T15:08:06.403Z,7.13
2023-04-25T15:10:36.273Z,3.60
2023-04-25T15:13:06.953Z,4.20
2023-04-25T15:15:39.286Z,3.63
2023-04-25T15:18:09.053Z,6.03
2023-04-25T15:20:38.871Z,4.13
2023-04-25T15:23:08.807Z,9.33
2023-04-25T15:25:38.537Z,5.57
2023-04-25T15:28:08.379Z,3.63
2023-04-25T15:30:41.256Z,5.30
2023-04-25T15:33:11.093Z,4.87
2023-04-25T15:35:40.981Z,6.20
2023-04-25T15:38:12.428Z,10.67
2023-04-25T15:40:42.189Z,6.23
2023-04-25T15:43:16.192Z,6.70
2023-04-25T15:45:48.827Z,8.03
2023-04-25T15:48:18.575Z,17.50
2023-04-25T15:50:48.452Z,7.13
2023-04-25T15:53:18.260Z,4.90
2023-04-25T15:55:48.241Z,3.10
2023-04-25T15:58:18.081Z,12.50
2023-04-25T16:00:51.926Z,8.23
2023-04-25T16:03:22.394Z,13.93
2023-04-25T16:05:52.991Z,5.93
2023-04-25T16:08:22.736Z,4.83
2023-04-25T16:10:52.941Z,6.30
2023-04-25T16:13:22.911Z,8.27
2023-04-25T16:15:55.287Z,10.93
2023-04-25T16:18:25.164Z,10.13
2023-04-25T16:20:55.029Z,7.83
2023-04-25T16:23:26.622Z,17.90
2023-04-25T16:25:56.385Z,5.83
2023-04-25T16:28:26.136Z,7.37
2023-04-25T16:30:58.494Z,11.10
2023-04-25T16:33:28.226Z,12.73
2023-04-25T16:35:58.237Z,6.57
2023-04-25T16:38:28.030Z,10.63
2023-04-25T16:40:57.804Z,12.50
2023-04-25T16:43:27.662Z,5.37
2023-04-25T16:46:00.045Z,5.27
2023-04-25T16:48:29.763Z,8.27
2023-04-25T16:50:59.606Z,7.40
2023-04-25T16:53:29.560Z,5.43
2023-04-25T16:55:59.313Z,12.70
2023-04-25T16:58:29.383Z,6.33
2023-04-25T17:01:01.910Z,8.40
2023-04-25T17:03:35.683Z,5.67
2023-04-25T17:06:05.953Z,4.40
2023-04-25T17:08:35.920Z,5.93
2023-04-25T17:11:06.192Z,2.40
2023-04-25T17:13:36.648Z,5.27
2023-04-25T17:16:11.371Z,7.17
2023-04-25T17:18:42.114Z,5.07
2023-04-25T17:21:12.199Z,4.20
2023-04-25T17:23:45.692Z,6.07
2023-04-25T17:26:16.609Z,5.83
2023-04-25T17:28:49.829Z,10.10
2023-04-25T17:31:22.772Z,6.30
2023-04-25T17:33:53.099Z,12.37
2023-04-25T17:36:23.152Z,7.20
2023-04-25T17:38:53.168Z,4.00
2023-04-25T17:41:23.079Z,4.63
2023-04-25T17:43:53.092Z,10.83
2023-04-25T17:46:26.941Z,5.53
2023-04-25T17:48:57.699Z,11.00
2023-04-25T17:51:27.668Z,8.73
2023-04-25T17:53:57.466Z,13.93
2023-04-25T17:56:27.872Z,6.90
2023-04-25T17:58:58.006Z,5.83
2023-04-25T18:01:30.522Z,10.23
2023-04-25T18:04:00.946Z,4.90
2023-04-25T18:06:33.066Z,13.73
2023-04-25T18:09:03.246Z,8.43
2023-04-25T18:11:33.029Z,10.60
2023-04-25T18:14:02.925Z,9.60
2023-04-25T18:16:35.426Z,3.90
2023-04-25T18:19:05.826Z,6.17
2023-04-25T18:21:36.466Z,9.13
2023-04-25T18:24:06.656Z,12.57
2023-04-25T18:26:36.451Z,7.00
2023-04-25T18:29:07.651Z,9.50
2023-04-25T18:31:40.217Z,10.27
2023-04-25T18:34:10.207Z,14.70
2023-04-25T18:36:40.763Z,7.23
2023-04-25T18:39:22.120Z,13.30
2023-04-25T18:41:59.311Z,8.17
2023-04-25T18:44:33.863Z,10.13
2023-04-25T18:47:06.456Z,11.63
2023-04-25T18:49:37.635Z,8.93
2023-04-25T18:52:08.714Z,4.53
2023-04-25T18:54:38.701Z,8.13
2023-04-25T18:57:09.524Z,9.97
2023-04-25T18:59:39.343Z,10.50
2023-04-25T19:02:12.463Z,8.13
2023-04-25T19:04:42.316Z,8.53
2023-04-25T19:07:12.409Z,9.97
2023-04-25T19:09:42.198Z,8.30
2023-04-25T19:12:12.051Z,7.43
2023-04-25T19:14:41.977Z,7.53
2023-04-25T19:17:14.406Z,11.30
2023-04-25T19:19:44.206Z,18.53
2023-04-25T19:22:14.369Z,5.27
2023-04-25T19:24:44.111Z,10.77
2023-04-25T19:27:14.263Z,9.23
2023-04-25T19:29:48.333Z,7.47
2023-04-25T19:32:20.803Z,8.83
2023-04-25T19:34:50.545Z,9.53
2023-04-25T19:37:20.311Z,10.60
2023-04-25T19:39:50.059Z,8.60
2023-04-25T19:42:19.871Z,5.70
2023-04-25T19:44:49.671Z,6.70
2023-04-25T19:47:22.261Z,11.47
2023-04-25T19:49:52.455Z,9.70
2023-04-25T19:52:22.516Z,4.67
2023-04-25T19:54:52.428Z,5.33
2023-04-25T19:57:22.217Z,12.97
2023-04-25T19:59:51.955Z,9.77
2023-04-25T20:02:24.365Z,17.83
2023-04-25T20:04:54.216Z,12.17
2023-04-25T20:07:24.686Z,6.77
2023-04-25T20:09:55.465Z,8.87
2023-04-25T20:12:29.991Z,10.13
2023-04-25T20:15:01.656Z,4.60
2023-04-25T20:17:35.687Z,13.70
2023-04-25T20:20:06.785Z,6.80
2023-04-25T20:22:42.804Z,10.47
2023-04-25T20:25:17.519Z,8.77
2023-04-25T20:27:48.455Z,10.00
2023-04-25T20:30:20.000Z,7.40
2023-04-25T20:32:53.190Z,7.80
2023-04-25T20:35:24.853Z,14.43
2023-04-25T20:37:58.845Z,7.90
2023-04-25T20:40:29.873Z,13.87
2023-04-25T20:43:02.020Z,7.60
2023-04-25T20:45:34.710Z,10.27
2023-04-25T20:48:08.214Z,10.93
2023-04-25T20:50:39.944Z,10.40
2023-04-25T20:53:13.827Z,10.20
2023-04-25T20:55:44.643Z,10.13
2023-04-25T20:58:15.371Z,9.90
2023-04-25T21:00:47.864Z,8.47
2023-04-25T21:03:21.367Z,7.33
2023-04-25T21:05:52.667Z,11.57
2023-04-25T21:08:24.065Z,8.77
2023-04-25T21:10:57.122Z,10.80
2023-04-25T21:13:29.313Z,11.80
2023-04-25T21:16:01.296Z,8.27
2023-04-25T21:18:35.192Z,7.53
2023-04-25T21:21:06.296Z,9.30
2023-04-25T21:23:38.833Z,6.10
2023-04-25T21:26:09.527Z,8.67
2023-04-25T21:28:40.154Z,12.20
2023-04-25T21:31:10.927Z,9.13
2023-04-25T21:33:45.097Z,7.00
2023-04-25T21:36:17.584Z,6.03
2023-04-25T21:38:50.413Z,6.40
2023-04-25T21:41:23.108Z,5.60
2023-04-25T21:43:58.028Z,7.93
2023-04-25T21:46:29.099Z,11.63
2023-04-25T21:49:04.113Z,8.90
2023-04-25T21:51:35.259Z,10.60
2023-04-25T21:54:06.908Z,10.60
2023-04-25T21:56:38.048Z,8.83
2023-04-25T21:59:12.191Z,8.40
2023-04-25T22:01:45.694Z,9.60
2023-04-25T22:04:19.490Z,12.47
2023-04-25T22:06:50.409Z,8.63
2023-04-25T22:09:21.321Z,7.57
2023-04-25T22:11:55.442Z,8.37
2023-04-25T22:14:27.080Z,10.77
2023-04-25T22:16:57.990Z,11.60
2023-04-25T22:19:32.729Z,8.27
2023-04-25T22:22:03.995Z,6.73
2023-04-25T22:24:37.636Z,9.33
2023-04-25T22:27:11.437Z,7.77
2023-04-25T22:29:42.196Z,9.07
2023-04-25T22:32:12.896Z,7.80
2023-04-25T22:34:47.532Z,10.17
2023-04-25T22:37:19.916Z,10.53
2023-04-25T22:39:50.556Z,8.33
2023-04-25T22:42:21.639Z,17.57
2023-04-25T22:44:53.318Z,5.93
2023-04-25T22:47:24.994Z,10.13
2023-04-25T22:49:58.348Z,13.63
2023-04-25T22:52:29.416Z,9.00
2023-04-25T22:54:59.915Z,12.33
2023-04-25T22:57:30.701Z,13.27
2023-04-25T23:00:02.061Z,5.77
2023-04-25T23:02:33.066Z,6.57
2023-04-25T23:05:07.696Z,13.63
2023-04-25T23:07:42.747Z,6.00
2023-04-25T23:10:14.554Z,15.43
2023-04-25T23:12:46.867Z,7.27
2023-04-25T23:15:17.773Z,6.03
2023-04-25T23:17:48.596Z,13.13
2023-04-25T23:20:22.061Z,7.63
2023-04-25T23:22:56.458Z,10.17
2023-04-25T23:25:28.814Z,7.20
2023-04-25T23:27:59.704Z,7.30
2023-04-25T23:30:31.217Z,15.90
2023-04-25T23:33:02.021Z,7.23
2023-04-25T23:35:41.492Z,10.60
2023-04-25T23:38:12.476Z,10.27
2023-04-25T23:40:43.069Z,7.43
2023-04-25T23:43:14.218Z,16.83
2023-04-25T23:45:47.176Z,13.80
2023-04-25T23:48:18.682Z,13.13
2023-04-25T23:50:52.186Z,10.50
2023-04-25T23:53:25.134Z,13.80
2023-04-25T23:55:55.187Z,9.60
2023-04-25T23:58:24.913Z,6.27
